Terminal Aerodrome Forecast
Issued by NWS

Home | Current Version | Previous Version | Text Only | Print | Product List | Glossary On
Versions: 1 2 3 4 5 6 7 8 9 10 11 12 13
000
FTPA31 PHFO 311120
TAFHJR
TAF
PHJR 311120Z 3112/0112 05005KT P6SM VCSH FEW030 BKN050
     FM312000 06008G13KT P6SM VCSH SCT030 BKN045
     FM010500 05005KT P6SM FEW030 BKN050=

USA.gov is the U.S. government's official web portal to all federal, state and local government web resources and services.